createdAt,value
2023-05-17T00:00:11.840Z,0.11
2023-05-17T00:01:11.817Z,0.13
2023-05-17T00:02:11.907Z,0.16
2023-05-17T00:03:11.970Z,0.06
2023-05-17T00:04:11.827Z,0.12
2023-05-17T00:05:11.784Z,0.05
2023-05-17T00:06:11.803Z,0.09
2023-05-17T00:07:11.780Z,0.06
2023-05-17T00:08:11.790Z,0.06
2023-05-17T00:09:11.766Z,0.07
2023-05-17T00:10:11.756Z,0.17
2023-05-17T00:11:11.762Z,0.08
2023-05-17T00:12:11.756Z,0.18
2023-05-17T00:13:11.727Z,0.12
2023-05-17T00:14:11.750Z,0.05
2023-05-17T00:15:11.717Z,0.18
2023-05-17T00:16:11.708Z,0.13
2023-05-17T00:17:11.701Z,0.02
2023-05-17T00:18:11.894Z,0.08
2023-05-17T00:19:11.846Z,0.08
2023-05-17T00:20:11.687Z,0.14
2023-05-17T00:21:11.662Z,0.06
2023-05-17T00:22:11.731Z,0.12
2023-05-17T00:23:11.670Z,0.18
2023-05-17T00:24:11.657Z,0.11
2023-05-17T00:25:11.640Z,0.09
2023-05-17T00:26:11.634Z,0.06
2023-05-17T00:27:11.644Z,0.08
2023-05-17T00:28:11.619Z,0.14
2023-05-17T00:29:11.619Z,0.08
2023-05-17T00:30:11.650Z,0.11
2023-05-17T00:31:11.620Z,0.11
2023-05-17T00:32:11.585Z,0.09
2023-05-17T00:33:11.593Z,0.09
2023-05-17T00:34:11.730Z,0.05
2023-05-17T00:35:11.640Z,0.09
2023-05-17T00:36:11.581Z,0.27
2023-05-17T00:37:11.555Z,0.06
2023-05-17T00:38:11.555Z,0.15
2023-05-17T00:39:11.570Z,0.05
2023-05-17T00:40:11.555Z,0.14
2023-05-17T00:41:11.530Z,0.06
2023-05-17T00:42:11.552Z,0.03
2023-05-17T00:43:11.536Z,0.10
2023-05-17T00:44:11.527Z,0.16
2023-05-17T00:45:11.501Z,0.08
2023-05-17T00:46:11.509Z,0.10
2023-05-17T00:47:11.566Z,0.11
2023-05-17T00:48:11.628Z,0.14
2023-05-17T00:49:11.481Z,0.01
2023-05-17T00:50:11.563Z,0.05
2023-05-17T00:51:11.469Z,0.07
2023-05-17T00:52:11.461Z,0.11
2023-05-17T00:53:11.463Z,0.19
2023-05-17T00:54:11.451Z,0.06
2023-05-17T00:55:11.476Z,0.07
2023-05-17T00:56:11.457Z,0.17
2023-05-17T00:57:11.465Z,0.10
2023-05-17T00:58:11.448Z,0.02
2023-05-17T00:59:11.419Z,0.15
2023-05-17T01:00:11.408Z,0.09
2023-05-17T01:01:11.504Z,0.13
2023-05-17T01:02:11.412Z,0.07
2023-05-17T01:03:11.447Z,0.08
2023-05-17T01:04:11.525Z,0.16
2023-05-17T01:05:11.388Z,0.13
2023-05-17T01:06:11.433Z,0.18
2023-05-17T01:07:11.376Z,0.10
2023-05-17T01:08:11.371Z,0.06
2023-05-17T01:09:11.358Z,0.14
2023-05-17T01:10:11.344Z,0.10
2023-05-17T01:11:11.338Z,0.14
2023-05-17T01:12:11.330Z,0.18
2023-05-17T01:13:11.323Z,0.18
2023-05-17T01:14:11.333Z,0.11
2023-05-17T01:15:11.317Z,0.07
2023-05-17T01:16:11.319Z,0.14
2023-05-17T01:17:11.305Z,0.18
2023-05-17T01:18:11.418Z,0.07
2023-05-17T01:19:11.348Z,0.01
2023-05-17T01:20:11.376Z,0.10
2023-05-17T01:21:11.285Z,0.07
2023-05-17T01:22:11.327Z,0.06
2023-05-17T01:23:11.275Z,0.09
2023-05-17T01:24:11.243Z,0.07
2023-05-17T01:25:11.250Z,0.10
2023-05-17T01:26:11.236Z,0.06
2023-05-17T01:27:11.242Z,0.04
2023-05-17T01:28:11.243Z,0.08
2023-05-17T01:29:11.208Z,0.06
2023-05-17T01:30:11.218Z,0.02
2023-05-17T01:31:11.193Z,0.05
2023-05-17T01:32:11.188Z,0.13
2023-05-17T01:33:11.260Z,0.10
2023-05-17T01:34:11.175Z,0.03
2023-05-17T01:35:11.168Z,0.12
2023-05-17T01:36:11.184Z,0.12
2023-05-17T01:37:11.170Z,0.09
2023-05-17T01:38:11.308Z,0.12
2023-05-17T01:39:11.151Z,0.01
2023-05-17T01:40:11.136Z,0.06
2023-05-17T01:41:11.124Z,0.13
2023-05-17T01:42:11.188Z,0.34
2023-05-17T01:43:11.120Z,0.16
2023-05-17T01:44:11.112Z,0.07
2023-05-17T01:45:11.100Z,0.05
2023-05-17T01:46:11.084Z,0.06
2023-05-17T01:47:11.102Z,0.08
2023-05-17T01:48:11.129Z,0.07
2023-05-17T01:49:11.052Z,0.07
2023-05-17T01:50:11.050Z,0.13
2023-05-17T01:51:11.039Z,0.06
2023-05-17T01:52:11.055Z,0.06
2023-05-17T01:53:11.049Z,0.07
2023-05-17T01:54:11.125Z,0.11
2023-05-17T01:55:11.033Z,0.05
2023-05-17T01:56:11.013Z,0.14
2023-05-17T01:57:11.021Z,0.11
2023-05-17T01:58:11.017Z,0.11
2023-05-17T01:59:10.989Z,0.04
2023-05-17T02:00:11.018Z,0.09
2023-05-17T02:01:10.978Z,0.05
2023-05-17T02:02:10.974Z,0.03
2023-05-17T02:03:10.966Z,0.05
2023-05-17T02:04:11.066Z,0.13
2023-05-17T02:05:11.044Z,0.07
2023-05-17T02:06:10.981Z,0.09
2023-05-17T02:07:11.004Z,0.05
2023-05-17T02:08:11.011Z,0.10
2023-05-17T02:09:10.997Z,0.05
2023-05-17T02:10:11.127Z,0.03
2023-05-17T02:11:11.009Z,0.04
2023-05-17T02:12:11.037Z,0.17
2023-05-17T02:13:11.023Z,0.03
2023-05-17T02:14:11.031Z,0.05
2023-05-17T02:15:11.056Z,0.02
2023-05-17T02:16:11.041Z,0.06
2023-05-17T02:17:11.054Z,0.04
2023-05-17T02:18:11.115Z,0.07
2023-05-17T02:19:11.123Z,0.00
2023-05-17T02:20:11.078Z,0.04
2023-05-17T02:21:11.079Z,0.10
2023-05-17T02:22:11.090Z,0.16
2023-05-17T02:23:11.106Z,0.02
2023-05-17T02:24:11.107Z,0.03
2023-05-17T02:25:11.104Z,0.16
2023-05-17T02:26:11.223Z,0.06
2023-05-17T02:27:11.195Z,0.08
2023-05-17T02:28:11.140Z,0.04
2023-05-17T02:29:11.195Z,0.02
2023-05-17T02:30:11.158Z,0.03
2023-05-17T02:31:11.162Z,0.11
2023-05-17T02:32:11.176Z,0.06
2023-05-17T02:33:11.261Z,0.03
2023-05-17T02:34:11.187Z,0.10
2023-05-17T02:35:11.201Z,0.08
2023-05-17T02:36:11.198Z,0.14
2023-05-17T02:37:11.230Z,0.04
2023-05-17T02:38:11.243Z,0.05
2023-05-17T02:39:11.228Z,0.13
2023-05-17T02:40:11.256Z,0.13
2023-05-17T02:41:11.265Z,0.08
2023-05-17T02:42:11.337Z,0.03
2023-05-17T02:43:11.276Z,0.08
2023-05-17T02:44:11.302Z,0.06
2023-05-17T02:45:11.284Z,0.04
2023-05-17T02:46:11.294Z,0.12
2023-05-17T02:47:11.362Z,0.10
2023-05-17T02:48:11.363Z,0.07
2023-05-17T02:49:11.329Z,0.04
2023-05-17T02:50:11.360Z,0.09
2023-05-17T02:51:11.425Z,0.16
2023-05-17T02:52:11.357Z,0.04
2023-05-17T02:53:11.389Z,0.15
2023-05-17T02:54:11.375Z,0.06
2023-05-17T02:55:11.383Z,0.00
2023-05-17T02:56:11.413Z,0.06
2023-05-17T02:57:11.416Z,0.09
2023-05-17T02:58:11.483Z,0.05
2023-05-17T02:59:11.418Z,0.06
2023-05-17T03:00:11.417Z,0.07
2023-05-17T03:01:11.410Z,0.06
2023-05-17T03:02:11.479Z,0.17
2023-05-17T03:03:11.563Z,0.08
2023-05-17T03:04:11.483Z,0.03
2023-05-17T03:05:11.470Z,0.06
2023-05-17T03:06:11.451Z,0.04
2023-05-17T03:07:11.454Z,0.08
2023-05-17T03:08:11.469Z,0.17
2023-05-17T03:09:11.494Z,0.11
2023-05-17T03:10:11.486Z,0.04
2023-05-17T03:11:11.524Z,0.04
2023-05-17T03:12:11.516Z,0.06
2023-05-17T03:13:11.541Z,0.05
2023-05-17T03:14:11.529Z,0.06
2023-05-17T03:15:11.554Z,0.05
2023-05-17T03:16:11.570Z,0.13
2023-05-17T03:17:11.583Z,0.08
2023-05-17T03:18:11.655Z,0.03
2023-05-17T03:19:11.678Z,0.02
2023-05-17T03:20:11.610Z,0.03
2023-05-17T03:21:11.620Z,0.02
2023-05-17T03:22:11.626Z,0.03
2023-05-17T03:23:11.625Z,0.04
2023-05-17T03:24:11.631Z,0.03
2023-05-17T03:25:11.627Z,0.12
2023-05-17T03:26:11.639Z,0.01
2023-05-17T03:27:11.705Z,0.06
2023-05-17T03:28:11.664Z,0.08
2023-05-17T03:29:11.693Z,0.08
2023-05-17T03:30:11.741Z,0.03
2023-05-17T03:31:11.676Z,0.13
2023-05-17T03:32:11.692Z,0.03
2023-05-17T03:33:11.776Z,0.04
2023-05-17T03:34:11.774Z,0.05
2023-05-17T03:35:11.724Z,0.02
2023-05-17T03:36:11.719Z,0.11
2023-05-17T03:37:11.714Z,0.16
2023-05-17T03:38:11.729Z,0.10
2023-05-17T03:39:11.743Z,0.07
2023-05-17T03:40:11.757Z,0.13
2023-05-17T03:41:11.786Z,0.11
2023-05-17T03:42:11.793Z,0.07
2023-05-17T03:43:11.798Z,0.12
2023-05-17T03:44:11.827Z,0.06
2023-05-17T03:45:11.820Z,0.02
2023-05-17T03:46:11.868Z,0.09
2023-05-17T03:47:11.841Z,0.00
2023-05-17T03:48:11.889Z,0.00
2023-05-17T03:49:11.897Z,0.18
2023-05-17T03:50:11.877Z,0.02
2023-05-17T03:51:11.913Z,0.07
2023-05-17T03:52:11.899Z,0.04
2023-05-17T03:53:11.906Z,0.05
2023-05-17T03:54:11.915Z,0.06
2023-05-17T03:55:11.922Z,0.04
2023-05-17T03:56:11.931Z,0.13
2023-05-17T03:57:11.958Z,0.07
2023-05-17T03:58:11.975Z,0.03
2023-05-17T03:59:11.969Z,0.06
2023-05-17T04:00:12.002Z,0.07
2023-05-17T04:01:11.979Z,0.05
2023-05-17T04:02:12.067Z,0.07
2023-05-17T04:03:12.004Z,0.06
2023-05-17T04:04:12.031Z,0.07
2023-05-17T04:05:12.065Z,0.02
2023-05-17T04:06:12.012Z,0.14
2023-05-17T04:07:12.026Z,0.06
2023-05-17T04:08:12.023Z,0.01
2023-05-17T04:09:12.059Z,0.07
2023-05-17T04:10:12.043Z,0.03
2023-05-17T04:11:12.062Z,0.07
2023-05-17T04:12:12.034Z,0.08
2023-05-17T04:13:12.066Z,0.05
2023-05-17T04:14:12.073Z,0.13
2023-05-17T04:15:12.055Z,0.04
2023-05-17T04:16:12.093Z,0.03
2023-05-17T04:17:12.078Z,0.10
2023-05-17T04:18:12.217Z,0.06
2023-05-17T04:19:12.195Z,0.13
2023-05-17T04:20:12.124Z,0.10
2023-05-17T04:21:12.125Z,0.06
2023-05-17T04:22:12.130Z,0.05
2023-05-17T04:23:12.149Z,0.06
2023-05-17T04:24:12.160Z,0.04
2023-05-17T04:25:12.165Z,0.05
2023-05-17T04:26:12.164Z,0.10
2023-05-17T04:27:12.172Z,0.07
2023-05-17T04:28:12.179Z,0.06
2023-05-17T04:29:12.165Z,0.08
2023-05-17T04:30:12.181Z,0.03
2023-05-17T04:31:12.184Z,0.07
2023-05-17T04:32:12.170Z,0.15
2023-05-17T04:33:14.100Z,0.09
2023-05-17T04:34:12.288Z,0.11
2023-05-17T04:35:12.223Z,0.12
2023-05-17T04:36:12.246Z,0.05
2023-05-17T04:37:12.237Z,0.03
2023-05-17T04:38:12.256Z,0.04
2023-05-17T04:39:12.244Z,0.03
2023-05-17T04:40:12.253Z,0.58
2023-05-17T04:41:12.263Z,0.04
2023-05-17T04:42:12.253Z,0.08
2023-05-17T04:43:12.254Z,0.13
2023-05-17T04:44:12.278Z,0.08
2023-05-17T04:45:13.464Z,0.05
2023-05-17T04:46:12.264Z,0.00
2023-05-17T04:47:12.265Z,0.06
2023-05-17T04:48:12.327Z,0.13
2023-05-17T04:49:12.248Z,0.04
2023-05-17T04:50:12.371Z,0.06
2023-05-17T04:51:12.233Z,0.18
2023-05-17T04:52:12.228Z,0.09
2023-05-17T04:53:12.235Z,0.10
2023-05-17T04:54:12.223Z,0.06
2023-05-17T04:55:12.217Z,0.03
2023-05-17T04:56:12.195Z,0.18
2023-05-17T04:57:12.200Z,0.06
2023-05-17T04:58:12.187Z,0.22
2023-05-17T04:59:12.203Z,0.03
2023-05-17T05:00:12.189Z,0.01
2023-05-17T05:01:12.191Z,0.09
2023-05-17T05:02:12.154Z,0.08
2023-05-17T05:03:12.241Z,0.04
2023-05-17T05:04:12.243Z,0.11
2023-05-17T05:05:12.231Z,0.01
2023-05-17T05:06:12.274Z,0.12
2023-05-17T05:07:12.119Z,0.05
2023-05-17T05:08:12.133Z,0.17
2023-05-17T05:09:12.110Z,0.23
2023-05-17T05:10:12.149Z,0.10
2023-05-17T05:11:12.094Z,0.08
2023-05-17T05:12:12.106Z,0.07
2023-05-17T05:13:12.101Z,0.14
2023-05-17T05:14:12.080Z,0.06
2023-05-17T05:15:12.068Z,0.04
2023-05-17T05:16:12.067Z,0.07
2023-05-17T05:17:12.067Z,0.06
2023-05-17T05:18:12.137Z,0.04
2023-05-17T05:19:12.163Z,0.10
2023-05-17T05:20:12.073Z,0.11
2023-05-17T05:21:12.036Z,0.11
2023-05-17T05:22:12.082Z,0.06
2023-05-17T05:23:12.060Z,0.04
2023-05-17T05:24:12.016Z,0.06
2023-05-17T05:25:12.002Z,0.12
2023-05-17T05:26:12.014Z,0.04
2023-05-17T05:27:11.999Z,0.09
2023-05-17T05:28:12.004Z,0.09
2023-05-17T05:29:11.990Z,0.09
2023-05-17T05:30:12.038Z,0.04
2023-05-17T05:31:11.965Z,0.14
2023-05-17T05:32:11.988Z,0.19
2023-05-17T05:33:12.055Z,0.16
2023-05-17T05:34:11.998Z,0.10
2023-05-17T05:35:11.960Z,0.37
2023-05-17T05:36:11.960Z,0.44
2023-05-17T05:37:11.942Z,0.37
2023-05-17T05:38:11.954Z,0.33
2023-05-17T05:39:11.944Z,0.32
2023-05-17T05:40:11.928Z,0.46
2023-05-17T05:41:11.999Z,0.36
2023-05-17T05:42:11.914Z,0.33
2023-05-17T05:43:11.922Z,0.40
2023-05-17T05:44:11.907Z,0.44
2023-05-17T05:45:11.911Z,0.62
2023-05-17T05:46:11.914Z,0.51
2023-05-17T05:47:11.875Z,0.83
2023-05-17T05:48:11.975Z,0.77
2023-05-17T05:49:11.885Z,0.47
2023-05-17T05:50:11.846Z,1.06
2023-05-17T05:51:11.859Z,0.53
2023-05-17T05:52:11.877Z,0.73
2023-05-17T05:54:11.883Z,1.31
2023-05-17T05:55:11.850Z,0.70
2023-05-17T05:56:11.848Z,1.30
2023-05-17T05:57:11.820Z,1.15
2023-05-17T05:58:11.784Z,0.78
2023-05-17T05:59:11.789Z,1.23
2023-05-17T06:00:11.785Z,1.13
2023-05-17T06:01:11.779Z,1.55
2023-05-17T06:02:11.773Z,1.24
2023-05-17T06:03:12.099Z,0.56
2023-05-17T06:04:11.757Z,1.04
2023-05-17T06:05:11.920Z,0.95
2023-05-17T06:06:11.867Z,2.32
2023-05-17T06:07:11.724Z,1.15
2023-05-17T06:08:11.749Z,1.31
2023-05-17T06:09:11.707Z,1.32
2023-05-17T06:10:11.799Z,1.46
2023-05-17T06:11:11.717Z,1.71
2023-05-17T06:12:11.705Z,2.09
2023-05-17T06:13:11.705Z,1.29
2023-05-17T06:14:11.693Z,1.24
2023-05-17T06:15:12.601Z,1.12
2023-05-17T06:16:12.612Z,1.22
2023-05-17T06:17:11.658Z,1.42
2023-05-17T06:18:11.692Z,1.71
2023-05-17T06:19:11.717Z,1.26
2023-05-17T06:20:11.653Z,1.64
2023-05-17T06:21:11.645Z,1.70
2023-05-17T06:22:11.648Z,2.02
2023-05-17T06:23:11.622Z,1.29
2023-05-17T06:24:11.632Z,1.44
2023-05-17T06:25:11.598Z,1.41
2023-05-17T06:26:11.655Z,1.08
2023-05-17T06:27:11.587Z,1.48
2023-05-17T06:28:11.600Z,1.88
2023-05-17T06:29:12.125Z,1.69
2023-05-17T06:30:11.589Z,2.07
2023-05-17T06:31:11.563Z,1.96
2023-05-17T06:32:11.581Z,3.98
2023-05-17T06:33:11.681Z,2.40
2023-05-17T06:34:11.619Z,3.22
2023-05-17T06:35:11.561Z,2.92
2023-05-17T06:36:11.532Z,5.62
2023-05-17T06:37:11.532Z,3.76
2023-05-17T06:38:11.547Z,3.97
2023-05-17T06:39:11.535Z,3.30
2023-05-17T06:41:11.509Z,3.92
2023-05-17T06:42:11.569Z,3.71
2023-05-17T06:43:11.622Z,6.62
2023-05-17T06:44:11.500Z,3.07
2023-05-17T06:45:11.484Z,4.36
2023-05-17T06:46:11.481Z,5.83
2023-05-17T06:47:11.475Z,3.40
2023-05-17T06:48:11.646Z,3.27
2023-05-17T06:49:11.511Z,4.72
2023-05-17T06:50:11.463Z,2.37
2023-05-17T06:51:11.451Z,5.52
2023-05-17T06:52:11.414Z,4.24
2023-05-17T06:53:11.427Z,4.93
2023-05-17T06:54:11.444Z,3.38
2023-05-17T06:55:11.395Z,4.22
2023-05-17T06:56:11.390Z,4.29
2023-05-17T06:57:11.395Z,8.65
2023-05-17T06:58:11.458Z,2.66
2023-05-17T06:59:11.375Z,4.68
2023-05-17T07:00:11.500Z,2.30
2023-05-17T07:01:11.357Z,4.00
2023-05-17T07:02:11.367Z,3.70
2023-05-17T07:03:11.465Z,2.82
2023-05-17T07:04:11.407Z,2.58
2023-05-17T07:05:11.398Z,3.32
2023-05-17T07:06:11.326Z,2.71
2023-05-17T07:07:11.329Z,2.60
2023-05-17T07:08:11.618Z,1.91
2023-05-17T07:09:11.299Z,1.72
2023-05-17T07:10:11.292Z,2.52
2023-05-17T07:11:11.292Z,2.39
2023-05-17T07:12:11.271Z,2.64
2023-05-17T07:13:11.268Z,1.96
2023-05-17T07:14:11.439Z,1.94
2023-05-17T07:15:11.282Z,1.75
2023-05-17T07:16:11.261Z,1.90
2023-05-17T07:17:11.234Z,1.68
2023-05-17T07:18:11.286Z,1.88
2023-05-17T07:19:11.342Z,1.88
2023-05-17T07:20:11.436Z,1.92
2023-05-17T07:21:11.210Z,2.03
2023-05-17T07:22:11.199Z,1.48
2023-05-17T07:23:11.232Z,1.86
2023-05-17T07:24:11.248Z,2.09
2023-05-17T07:25:11.232Z,1.96
2023-05-17T07:26:11.228Z,1.56
2023-05-17T07:27:11.263Z,1.91
2023-05-17T07:28:11.297Z,1.52
2023-05-17T07:29:11.348Z,1.44
2023-05-17T07:30:11.343Z,1.53
2023-05-17T07:31:11.381Z,1.39
2023-05-17T07:32:11.398Z,1.69
2023-05-17T07:33:11.723Z,1.64
2023-05-17T07:34:11.528Z,1.16
2023-05-17T07:35:11.502Z,1.22
2023-05-17T07:36:11.751Z,1.35
2023-05-17T07:37:11.558Z,1.82
2023-05-17T07:38:11.662Z,1.76
2023-05-17T07:39:11.592Z,2.04
2023-05-17T07:40:11.679Z,2.07
2023-05-17T07:41:11.693Z,1.24
2023-05-17T07:42:11.706Z,2.04
2023-05-17T07:43:11.730Z,1.51
2023-05-17T07:44:11.703Z,1.33
2023-05-17T07:45:11.788Z,1.39
2023-05-17T07:46:11.978Z,1.16
2023-05-17T07:47:11.960Z,1.39
2023-05-17T07:48:12.051Z,1.51
2023-05-17T07:49:12.046Z,1.48
2023-05-17T07:50:12.023Z,1.45
2023-05-17T07:51:12.089Z,1.18
2023-05-17T07:52:12.110Z,1.45
2023-05-17T07:53:12.635Z,2.02
2023-05-17T07:54:12.164Z,1.24
2023-05-17T07:55:12.465Z,1.96
2023-05-17T07:56:12.289Z,1.72
2023-05-17T07:57:12.235Z,1.55
2023-05-17T07:58:12.668Z,1.19
2023-05-17T07:59:12.247Z,1.62
2023-05-17T08:00:12.246Z,1.08
2023-05-17T08:01:12.265Z,1.77
2023-05-17T08:02:12.444Z,1.60
2023-05-17T08:03:14.003Z,1.21
2023-05-17T08:04:12.277Z,1.44
2023-05-17T08:05:12.240Z,1.35
2023-05-17T08:06:12.258Z,1.33
2023-05-17T08:07:12.225Z,2.31
2023-05-17T08:08:12.647Z,1.57
2023-05-17T08:09:12.215Z,0.95
2023-05-17T08:10:12.224Z,1.88
2023-05-17T08:11:12.202Z,1.52
2023-05-17T08:12:12.174Z,1.84
2023-05-17T08:13:12.167Z,2.24
2023-05-17T08:14:12.161Z,2.20
2023-05-17T08:15:12.174Z,2.76
2023-05-17T08:16:14.097Z,2.02
2023-05-17T08:17:12.141Z,4.50
2023-05-17T08:18:12.196Z,2.57
2023-05-17T08:19:12.233Z,2.43
2023-05-17T08:20:12.208Z,3.38
2023-05-17T08:21:12.127Z,3.90
2023-05-17T08:22:12.108Z,3.40
2023-05-17T08:23:12.131Z,2.99
2023-05-17T08:24:12.108Z,4.24
2023-05-17T08:25:12.102Z,2.87
2023-05-17T08:26:12.101Z,2.79
2023-05-17T08:27:12.081Z,3.72
2023-05-17T08:28:12.075Z,2.85
2023-05-17T08:29:12.068Z,4.31
2023-05-17T08:30:15.022Z,3.08
2023-05-17T08:31:13.035Z,3.18
2023-05-17T08:32:12.056Z,3.74
2023-05-17T08:33:12.287Z,3.10
2023-05-17T08:34:12.058Z,3.66
2023-05-17T08:35:12.036Z,3.30
2023-05-17T08:36:12.018Z,3.46
2023-05-17T08:37:12.034Z,3.15
2023-05-17T08:38:11.981Z,2.86
2023-05-17T08:39:11.984Z,3.33
2023-05-17T08:40:12.029Z,3.05
2023-05-17T08:41:11.955Z,2.70
2023-05-17T08:42:11.971Z,3.04
2023-05-17T08:43:11.960Z,3.42
2023-05-17T08:44:11.941Z,3.07
2023-05-17T08:45:11.961Z,3.02
2023-05-17T08:46:11.929Z,4.68
2023-05-17T08:47:11.941Z,3.41
2023-05-17T08:48:12.038Z,3.45
2023-05-17T08:49:12.046Z,3.28
2023-05-17T08:50:12.092Z,3.04
2023-05-17T08:51:12.136Z,3.12
2023-05-17T08:52:12.155Z,2.45
2023-05-17T08:53:12.248Z,3.15
2023-05-17T08:54:12.228Z,2.77
2023-05-17T08:55:12.308Z,3.45
2023-05-17T08:56:12.315Z,2.59
2023-05-17T08:57:12.364Z,2.57
2023-05-17T08:58:12.631Z,2.79
2023-05-17T08:59:12.412Z,4.21
2023-05-17T09:00:12.507Z,3.27
2023-05-17T09:01:12.466Z,2.77
2023-05-17T09:02:12.530Z,2.60
2023-05-17T09:03:12.631Z,1.93
2023-05-17T09:04:12.642Z,2.04
2023-05-17T09:05:12.630Z,2.09
2023-05-17T09:06:12.596Z,2.27
2023-05-17T09:07:13.514Z,2.37
2023-05-17T09:08:12.645Z,2.28
2023-05-17T09:09:12.689Z,2.13
2023-05-17T09:10:12.708Z,2.56
2023-05-17T09:11:12.738Z,2.20
2023-05-17T09:12:12.783Z,2.79
2023-05-17T09:13:12.780Z,2.57
2023-05-17T09:14:12.796Z,2.32
2023-05-17T09:15:12.838Z,2.25
2023-05-17T09:16:12.841Z,2.05
2023-05-17T09:17:12.852Z,2.42
2023-05-17T09:18:12.944Z,2.21
2023-05-17T09:19:13.015Z,2.21
2023-05-17T09:20:13.068Z,2.17
2023-05-17T09:21:12.925Z,2.17
2023-05-17T09:22:13.542Z,2.24
2023-05-17T09:23:12.977Z,1.92
2023-05-17T09:24:12.994Z,2.76
2023-05-17T09:25:13.002Z,2.22
2023-05-17T09:26:13.012Z,1.94
2023-05-17T09:27:13.037Z,1.42
2023-05-17T09:28:13.169Z,1.81
2023-05-17T09:29:13.054Z,1.99
2023-05-17T09:30:13.060Z,2.08
2023-05-17T09:31:13.093Z,2.43
2023-05-17T09:32:13.104Z,2.72
2023-05-17T09:33:15.098Z,2.63
2023-05-17T09:34:13.193Z,2.64
2023-05-17T09:35:13.139Z,2.27
2023-05-17T09:36:13.107Z,2.53
2023-05-17T09:37:13.099Z,2.31
2023-05-17T09:38:13.086Z,4.02
2023-05-17T09:39:13.780Z,2.61
2023-05-17T09:40:13.125Z,2.11
2023-05-17T09:41:13.097Z,2.67
2023-05-17T09:42:13.103Z,2.70
2023-05-17T09:43:13.135Z,2.16
2023-05-17T09:45:03.626Z,0.87
2023-05-17T09:46:03.409Z,0.74
2023-05-17T09:47:03.414Z,0.80
2023-05-17T09:48:03.573Z,0.64
2023-05-17T09:49:03.521Z,0.88
2023-05-17T09:50:03.403Z,0.56
2023-05-17T09:51:03.360Z,1.16
2023-05-17T09:52:03.373Z,0.90
2023-05-17T09:53:03.363Z,0.83
2023-05-17T09:54:03.342Z,0.64
2023-05-17T09:55:03.346Z,0.85
2023-05-17T09:56:03.345Z,1.04
2023-05-17T09:57:03.326Z,2.23
2023-05-17T09:58:03.341Z,0.61
2023-05-17T09:59:03.314Z,0.69
2023-05-17T10:00:03.335Z,0.87
2023-05-17T10:01:03.331Z,0.91
2023-05-17T10:02:03.317Z,0.81
2023-05-17T10:03:03.365Z,0.72
2023-05-17T10:04:03.328Z,0.69
2023-05-17T10:05:03.311Z,0.82
2023-05-17T10:06:03.299Z,0.71
2023-05-17T10:07:03.283Z,0.92
2023-05-17T10:08:03.285Z,0.77
2023-05-17T10:09:03.284Z,0.87
2023-05-17T10:10:03.246Z,0.89
2023-05-17T10:11:03.230Z,0.57
2023-05-17T10:12:03.240Z,0.96
2023-05-17T10:13:03.256Z,0.85
2023-05-17T10:14:03.231Z,0.93
2023-05-17T10:15:03.289Z,0.67
2023-05-17T10:16:03.304Z,1.13
2023-05-17T10:17:03.648Z,0.96
2023-05-17T10:18:03.555Z,0.64
2023-05-17T10:19:03.516Z,0.86
2023-05-17T10:20:03.613Z,0.87
2023-05-17T10:21:03.584Z,1.78
2023-05-17T10:22:18.909Z,2.44
2023-05-17T10:23:04.674Z,2.76
2023-05-17T10:24:03.624Z,2.71
2023-05-17T10:25:03.590Z,2.84
2023-05-17T10:26:03.562Z,2.21
2023-05-17T10:27:03.559Z,2.47
2023-05-17T10:28:03.558Z,2.23
2023-05-17T10:29:03.571Z,2.09
2023-05-17T10:30:03.568Z,2.19
2023-05-17T10:31:03.531Z,2.18
2023-05-17T10:32:03.556Z,1.92
2023-05-17T10:33:03.667Z,2.04
2023-05-17T10:34:03.569Z,2.74
2023-05-17T10:35:11.362Z,2.04
2023-05-17T10:36:04.509Z,3.25
2023-05-17T10:37:03.505Z,2.51
2023-05-17T10:38:03.497Z,2.66
2023-05-17T10:39:03.488Z,2.30
2023-05-17T10:40:03.477Z,1.81
2023-05-17T10:41:03.464Z,1.94
2023-05-17T10:42:14.211Z,2.52
2023-05-17T10:43:04.467Z,2.31
2023-05-17T10:44:03.452Z,1.70
2023-05-17T10:45:03.443Z,2.19
2023-05-17T10:46:03.449Z,1.90
2023-05-17T10:47:03.419Z,1.88
2023-05-17T10:48:03.460Z,1.82
2023-05-17T10:49:03.442Z,1.79
2023-05-17T10:50:03.424Z,1.78
2023-05-17T10:51:03.395Z,1.54
2023-05-17T10:52:03.389Z,1.65
2023-05-17T10:53:03.385Z,2.41
2023-05-17T10:54:03.381Z,2.12
2023-05-17T10:55:03.401Z,2.16
2023-05-17T10:56:03.430Z,1.53
2023-05-17T10:57:03.441Z,1.92
2023-05-17T10:58:03.467Z,2.22
2023-05-17T10:59:03.476Z,1.92
2023-05-17T11:00:03.517Z,1.95
2023-05-17T11:01:03.509Z,1.53
2023-05-17T11:02:03.610Z,1.92
2023-05-17T11:03:03.777Z,1.84
2023-05-17T11:04:03.710Z,1.93
2023-05-17T11:05:03.797Z,3.19
2023-05-17T11:06:03.835Z,1.66
2023-05-17T11:07:05.561Z,2.26
2023-05-17T11:08:04.114Z,1.50
2023-05-17T11:09:04.129Z,1.62
2023-05-17T11:10:03.693Z,1.52
2023-05-17T11:11:03.682Z,1.20
2023-05-17T11:12:03.684Z,1.07
2023-05-17T11:13:03.671Z,1.31
2023-05-17T11:14:04.155Z,1.51
2023-05-17T11:15:03.983Z,1.37
2023-05-17T11:16:03.655Z,1.46
2023-05-17T11:17:03.657Z,1.50
2023-05-17T11:18:04.193Z,1.59
2023-05-17T11:19:03.745Z,1.79
2023-05-17T11:20:03.741Z,1.89
2023-05-17T11:21:03.720Z,1.47
2023-05-17T11:22:03.591Z,1.25
2023-05-17T11:23:03.587Z,1.38
2023-05-17T11:24:03.586Z,1.79
2023-05-17T11:25:03.600Z,1.87
2023-05-17T11:26:13.040Z,1.39
2023-05-17T11:27:04.579Z,1.12
2023-05-17T11:28:03.639Z,1.28
2023-05-17T11:29:03.565Z,1.01
2023-05-17T11:30:03.537Z,1.24
2023-05-17T11:31:03.589Z,1.33
2023-05-17T11:32:03.522Z,1.49
2023-05-17T11:33:03.815Z,0.91
2023-05-17T11:34:03.536Z,1.07
2023-05-17T11:35:03.505Z,0.99
2023-05-17T11:36:03.508Z,1.46
2023-05-17T11:37:03.489Z,1.52
2023-05-17T11:38:03.487Z,1.47
2023-05-17T11:39:08.049Z,1.29
2023-05-17T11:40:04.475Z,1.70
2023-05-17T11:41:04.764Z,1.35
2023-05-17T11:42:03.478Z,1.43
2023-05-17T11:43:03.462Z,1.30
2023-05-17T11:44:03.451Z,1.13
2023-05-17T11:45:03.456Z,1.40
2023-05-17T11:46:03.647Z,1.33
2023-05-17T11:47:03.466Z,1.95
2023-05-17T11:48:03.566Z,1.85
2023-05-17T11:49:03.428Z,1.10
2023-05-17T11:50:03.430Z,1.39
2023-05-17T11:51:03.411Z,1.26
2023-05-17T11:52:03.411Z,1.28
2023-05-17T11:53:03.413Z,1.49
2023-05-17T11:54:03.399Z,1.15
2023-05-17T11:55:03.384Z,1.37
2023-05-17T11:56:03.430Z,0.94
2023-05-17T11:57:03.359Z,0.98
2023-05-17T11:58:03.365Z,0.96
2023-05-17T11:59:03.359Z,1.12
2023-05-17T12:00:03.329Z,1.27
2023-05-17T12:01:03.369Z,0.80
2023-05-17T12:02:03.351Z,0.78
2023-05-17T12:03:03.355Z,0.97
2023-05-17T12:04:03.678Z,0.93
2023-05-17T12:05:03.419Z,1.02
2023-05-17T12:06:03.372Z,1.20
2023-05-17T12:07:03.294Z,1.14
2023-05-17T12:08:03.288Z,1.17
2023-05-17T12:09:03.283Z,1.21
2023-05-17T12:10:03.277Z,1.18
2023-05-17T12:11:03.315Z,0.98
2023-05-17T12:12:03.251Z,0.96
2023-05-17T12:13:03.252Z,1.07
2023-05-17T12:14:03.258Z,1.05
2023-05-17T12:15:03.251Z,1.19
2023-05-17T12:16:03.277Z,1.20
2023-05-17T12:17:03.250Z,1.07
2023-05-17T12:18:03.262Z,1.29
2023-05-17T12:19:03.324Z,1.53
2023-05-17T12:20:03.282Z,1.14
2023-05-17T12:21:03.195Z,1.19
2023-05-17T12:22:03.204Z,1.16
2023-05-17T12:23:03.200Z,1.31
2023-05-17T12:24:03.184Z,1.34
2023-05-17T12:25:03.185Z,1.42
2023-05-17T12:26:03.173Z,1.06
2023-05-17T12:27:03.158Z,1.25
2023-05-17T12:28:03.153Z,1.37
2023-05-17T12:29:03.153Z,1.77
2023-05-17T12:30:03.134Z,1.59
2023-05-17T12:31:03.132Z,1.21
2023-05-17T12:32:03.130Z,1.57
2023-05-17T12:33:03.184Z,1.21
2023-05-17T12:34:03.301Z,1.15
2023-05-17T12:35:03.248Z,1.17
2023-05-17T12:36:03.287Z,1.72
2023-05-17T12:37:03.315Z,1.21
2023-05-17T12:38:03.384Z,1.45
2023-05-17T12:39:03.406Z,0.80
2023-05-17T12:40:03.452Z,1.53
2023-05-17T12:41:03.466Z,1.22
2023-05-17T12:42:03.509Z,1.47
2023-05-17T12:43:03.535Z,1.31
2023-05-17T12:44:14.837Z,1.55
2023-05-17T12:45:04.541Z,1.68
2023-05-17T12:46:03.883Z,1.24
2023-05-17T12:47:03.529Z,1.04
2023-05-17T12:48:03.559Z,1.09
2023-05-17T12:49:03.590Z,1.30
2023-05-17T12:50:03.517Z,1.09
2023-05-17T12:51:03.513Z,1.49
2023-05-17T12:52:03.523Z,1.53
2023-05-17T12:53:03.492Z,1.37
2023-05-17T12:54:03.511Z,1.60
2023-05-17T12:55:03.499Z,2.01
2023-05-17T12:56:03.490Z,1.78
2023-05-17T12:57:03.491Z,1.25
2023-05-17T12:58:03.478Z,1.59
2023-05-17T12:59:03.455Z,2.03
2023-05-17T13:00:03.468Z,1.55
2023-05-17T13:01:03.497Z,2.22
2023-05-17T13:02:03.560Z,1.93
2023-05-17T13:03:03.642Z,1.31
2023-05-17T13:04:03.765Z,1.72
2023-05-17T13:05:03.829Z,1.34
2023-05-17T13:06:03.811Z,1.22
2023-05-17T13:07:03.796Z,1.65
2023-05-17T13:08:03.859Z,1.29
2023-05-17T13:09:03.927Z,1.57
2023-05-17T13:10:03.965Z,1.53
2023-05-17T13:11:04.025Z,1.39
2023-05-17T13:12:04.094Z,1.13
2023-05-17T13:13:04.181Z,1.36
2023-05-17T13:14:04.276Z,1.06
2023-05-17T13:15:04.336Z,1.53
2023-05-17T13:16:04.412Z,1.29
2023-05-17T13:17:04.503Z,1.15
2023-05-17T13:18:04.540Z,1.11
2023-05-17T13:19:04.625Z,1.28
2023-05-17T13:20:06.382Z,1.21
2023-05-17T13:21:04.542Z,1.06